createdAt,value
2023-04-11T00:00:22.182Z,64.43
2023-04-11T00:02:48.900Z,64.39
2023-04-11T00:05:15.973Z,64.42
2023-04-11T00:07:42.601Z,64.31
2023-04-11T00:10:09.600Z,64.36
2023-04-11T00:12:36.178Z,64.51
2023-04-11T00:15:03.723Z,64.53
2023-04-11T00:17:31.817Z,64.41
2023-04-11T00:20:01.811Z,64.50
2023-04-11T00:22:28.363Z,64.44
2023-04-11T00:24:55.125Z,64.93
2023-04-11T00:27:22.120Z,64.24
2023-04-11T00:29:48.725Z,63.81
2023-04-11T00:32:15.470Z,64.14
2023-04-11T00:34:42.343Z,64.25
2023-04-11T00:37:08.845Z,64.63
2023-04-11T00:39:35.387Z,65.45
2023-04-11T00:42:07.684Z,65.32
2023-04-11T00:44:36.272Z,65.53
2023-04-11T00:47:06.568Z,65.84
2023-04-11T00:49:33.733Z,66.27
2023-04-11T00:52:00.789Z,66.70
2023-04-11T00:54:30.108Z,66.65
2023-04-11T00:56:59.696Z,67.03
2023-04-11T00:59:28.089Z,67.21
2023-04-11T01:01:55.631Z,67.54
2023-04-11T01:04:22.843Z,67.39
2023-04-11T01:06:53.003Z,67.24
2023-04-11T01:09:21.457Z,67.20
2023-04-11T01:11:49.788Z,67.16
2023-04-11T01:14:18.485Z,67.15
2023-04-11T01:16:50.747Z,67.04
2023-04-11T01:19:23.548Z,66.97
2023-04-11T01:21:52.049Z,67.00
2023-04-11T01:24:19.000Z,66.64
2023-04-11T01:26:45.976Z,66.33
2023-04-11T01:29:14.572Z,66.35
2023-04-11T01:31:41.204Z,66.14
2023-04-11T01:34:07.936Z,66.18
2023-04-11T01:36:34.728Z,66.02
2023-04-11T01:39:01.493Z,65.96
2023-04-11T01:41:30.424Z,65.96
2023-04-11T01:43:59.270Z,66.03
2023-04-11T01:46:26.093Z,66.01
2023-04-11T01:48:55.412Z,65.71
2023-04-11T01:51:22.221Z,65.90
2023-04-11T01:53:48.754Z,66.30
2023-04-11T01:56:15.539Z,66.27
2023-04-11T01:58:42.170Z,66.17
2023-04-11T02:01:09.188Z,66.07
2023-04-11T02:03:37.017Z,66.05
2023-04-11T02:06:04.069Z,66.37
2023-04-11T02:08:30.954Z,66.50
2023-04-11T02:10:57.452Z,66.49
2023-04-11T02:13:23.985Z,66.53
2023-04-11T02:19:03.737Z,66.72
2023-04-11T02:21:30.330Z,66.56
2023-04-11T02:23:58.428Z,66.42
2023-04-11T02:26:26.796Z,66.32
2023-04-11T02:28:55.965Z,66.36
2023-04-11T02:31:22.885Z,66.42
2023-04-11T02:33:49.455Z,66.28
2023-04-11T02:36:18.671Z,66.34
2023-04-11T02:38:45.360Z,66.17
2023-04-11T02:41:11.921Z,66.05
2023-04-11T02:43:38.749Z,66.20
2023-04-11T02:46:12.525Z,66.28
2023-04-11T02:48:42.007Z,66.36
2023-04-11T02:51:09.237Z,66.33
2023-04-11T02:53:35.834Z,66.38
2023-04-11T02:56:02.473Z,66.36
2023-04-11T02:58:29.190Z,66.27
2023-04-11T03:00:57.161Z,66.28
2023-04-11T03:03:23.936Z,66.50
2023-04-11T03:05:50.739Z,66.41
2023-04-11T03:08:22.041Z,66.53
2023-04-11T03:10:51.282Z,66.59
2023-04-11T03:13:18.671Z,66.50
2023-04-11T03:15:45.301Z,66.60
2023-04-11T03:18:12.394Z,66.65
2023-04-11T03:20:41.440Z,66.71
2023-04-11T03:23:08.691Z,66.78
2023-04-11T03:25:37.773Z,66.87
2023-04-11T03:28:05.518Z,66.98
2023-04-11T03:30:33.386Z,67.07
2023-04-11T03:33:00.935Z,67.02
2023-04-11T03:35:28.068Z,66.99
2023-04-11T03:37:54.661Z,66.79
2023-04-11T03:40:21.397Z,66.93
2023-04-11T03:42:52.067Z,66.74
2023-04-11T03:45:21.485Z,66.74
2023-04-11T03:47:48.465Z,66.46
2023-04-11T03:50:15.596Z,66.13
2023-04-11T03:52:44.624Z,66.42
2023-04-11T03:55:13.197Z,66.20
2023-04-11T03:57:39.787Z,66.14
2023-04-11T04:00:07.648Z,65.80
2023-04-11T04:02:42.179Z,65.71
2023-04-11T04:05:11.115Z,65.86
2023-04-11T04:07:39.544Z,65.86
2023-04-11T04:10:14.470Z,65.94
2023-04-11T04:12:41.729Z,65.95
2023-04-11T04:15:14.602Z,65.82
2023-04-11T04:17:42.193Z,65.74
2023-04-11T04:20:12.374Z,65.67
2023-04-11T04:22:39.707Z,66.16
2023-04-11T04:25:06.994Z,65.99
2023-04-11T04:27:34.966Z,66.13
2023-04-11T04:30:04.474Z,65.96
2023-04-11T04:33:12.430Z,65.92
2023-04-11T04:35:42.211Z,66.23
2023-04-11T04:38:08.980Z,66.58
2023-04-11T04:40:50.422Z,66.72
2023-04-11T04:43:22.599Z,66.48
2023-04-11T04:46:15.501Z,66.48
2023-04-11T04:48:48.777Z,66.29
2023-04-11T04:51:15.448Z,66.12
2023-04-11T04:53:42.167Z,65.92
2023-04-11T04:56:09.811Z,65.82
2023-04-11T04:58:41.225Z,66.01
2023-04-11T05:01:11.447Z,65.63
2023-04-11T05:03:39.019Z,65.39
2023-04-11T05:06:09.668Z,65.91
2023-04-11T05:08:36.715Z,65.85
2023-04-11T05:11:05.435Z,65.65
2023-04-11T05:13:34.320Z,65.60
2023-04-11T05:16:02.411Z,65.48
2023-04-11T05:18:30.615Z,65.21
2023-04-11T05:21:04.873Z,65.41
2023-04-11T05:23:38.186Z,65.23
2023-04-11T05:26:08.974Z,65.06
2023-04-11T05:28:36.171Z,64.49
2023-04-11T05:31:07.049Z,63.92
2023-04-11T05:33:34.269Z,63.77
2023-04-11T05:36:01.272Z,64.16
2023-04-11T05:38:27.899Z,63.80
2023-04-11T05:40:54.431Z,63.56
2023-04-11T05:43:21.314Z,63.13
2023-04-11T05:45:48.190Z,62.50
2023-04-11T05:48:19.584Z,62.71
2023-04-11T05:50:47.623Z,62.79
2023-04-11T05:53:14.184Z,61.80
2023-04-11T05:55:40.902Z,60.59
2023-04-11T05:58:09.299Z,60.71
2023-04-11T06:00:38.420Z,61.17
2023-04-11T06:03:07.974Z,62.01
2023-04-11T06:05:35.362Z,61.67
2023-04-11T06:08:04.271Z,61.81
2023-04-11T06:10:31.258Z,61.42
2023-04-11T06:12:58.225Z,61.25
2023-04-11T06:15:29.097Z,59.38
2023-04-11T06:17:56.066Z,56.36
2023-04-11T06:20:25.193Z,56.53
2023-04-11T06:22:52.138Z,55.92
2023-04-11T06:25:20.394Z,54.76
2023-04-11T06:27:48.060Z,53.26
2023-04-11T06:30:15.464Z,51.10
2023-04-11T06:32:42.367Z,49.57
2023-04-11T06:35:10.041Z,48.32
2023-04-11T06:37:36.823Z,47.88
2023-04-11T06:40:05.765Z,47.01
2023-04-11T06:42:32.627Z,46.56
2023-04-11T06:44:59.258Z,44.95
2023-04-11T06:47:26.020Z,43.40
2023-04-11T06:49:52.568Z,42.68
2023-04-11T06:52:19.135Z,42.66
2023-04-11T06:54:47.829Z,42.83
2023-04-11T06:57:14.482Z,42.43
2023-04-11T06:59:41.276Z,42.07
2023-04-11T07:02:08.239Z,41.22
2023-04-11T07:04:35.063Z,40.48
2023-04-11T07:07:01.891Z,40.09
2023-04-11T07:09:28.568Z,40.02
2023-04-11T07:11:55.157Z,39.41
2023-04-11T07:14:21.727Z,38.50
2023-04-11T07:16:48.276Z,37.20
2023-04-11T07:19:14.941Z,35.04
2023-04-11T07:21:42.024Z,34.01
2023-04-11T07:24:10.574Z,35.09
2023-04-11T07:26:38.589Z,35.77
2023-04-11T07:29:05.765Z,35.73
2023-04-11T07:31:33.232Z,34.81
2023-04-11T07:33:59.832Z,34.74
2023-04-11T07:36:26.744Z,34.72
2023-04-11T07:38:53.410Z,34.28
2023-04-11T07:41:20.069Z,32.11
2023-04-11T07:43:47.269Z,30.98
2023-04-11T07:46:15.118Z,30.50
2023-04-11T07:48:42.621Z,31.23
2023-04-11T07:51:09.480Z,30.88
2023-04-11T07:53:36.356Z,29.37
2023-04-11T07:56:03.181Z,29.55
2023-04-11T07:58:30.234Z,31.05
2023-04-11T08:00:56.885Z,32.63
2023-04-11T08:03:24.038Z,33.66
2023-04-11T08:05:52.247Z,32.43
2023-04-11T08:08:19.017Z,32.88
2023-04-11T08:10:45.794Z,33.64
2023-04-11T08:13:12.439Z,36.59
2023-04-11T08:15:39.261Z,38.59
2023-04-11T08:18:05.952Z,40.37
2023-04-11T08:20:32.737Z,40.76
2023-04-11T08:23:00.678Z,39.18
2023-04-11T08:25:27.562Z,35.63
2023-04-11T08:27:54.497Z,34.64
2023-04-11T08:30:21.661Z,34.25
2023-04-11T08:32:48.384Z,33.17
2023-04-11T08:35:15.364Z,32.80
2023-04-11T08:37:44.370Z,31.97
2023-04-11T08:40:11.652Z,32.46
2023-04-11T08:42:38.350Z,33.60
2023-04-11T08:45:08.794Z,33.97
2023-04-11T08:47:37.135Z,34.91
2023-04-11T08:50:06.592Z,34.11
2023-04-11T08:52:34.180Z,33.75
2023-04-11T08:55:02.124Z,33.05
2023-04-11T08:57:35.141Z,31.87
2023-04-11T09:00:19.285Z,32.90
2023-04-11T09:03:02.841Z,34.12
2023-04-11T09:05:35.034Z,33.66
2023-04-11T09:08:08.299Z,33.40
2023-04-11T09:10:36.345Z,34.00
2023-04-11T09:13:18.322Z,33.36
2023-04-11T09:15:45.217Z,33.46
2023-04-11T09:18:31.919Z,33.79
2023-04-11T09:21:04.416Z,32.80
2023-04-11T09:23:31.203Z,31.15
2023-04-11T09:25:58.443Z,30.83
2023-04-11T09:28:25.951Z,29.93
2023-04-11T09:30:54.494Z,28.45
2023-04-11T09:33:28.355Z,28.45
2023-04-11T09:35:56.770Z,28.48
2023-04-11T09:38:32.156Z,27.60
2023-04-11T09:41:00.662Z,26.73
2023-04-11T09:43:53.091Z,26.44
2023-04-11T09:46:21.421Z,26.70
2023-04-11T09:48:49.536Z,26.32
2023-04-11T09:51:31.889Z,26.22
2023-04-11T09:54:02.082Z,26.55
2023-04-11T09:56:30.581Z,27.24
2023-04-11T09:58:59.905Z,27.56
2023-04-11T10:01:27.412Z,29.03
2023-04-11T10:03:56.679Z,28.76
2023-04-11T10:06:41.362Z,26.19
2023-04-11T10:09:11.102Z,26.14
2023-04-11T10:11:42.361Z,25.53
2023-04-11T10:14:09.453Z,26.11
2023-04-11T10:16:37.445Z,26.23
2023-04-11T10:19:04.665Z,25.48
2023-04-11T10:21:36.541Z,26.60
2023-04-11T10:24:15.888Z,28.06
2023-04-11T10:26:51.704Z,28.01
2023-04-11T10:29:34.528Z,27.78
2023-04-11T10:32:17.334Z,28.78
2023-04-11T10:34:49.921Z,29.37
2023-04-11T10:37:34.704Z,29.53
2023-04-11T10:40:11.660Z,29.99
2023-04-11T10:42:41.030Z,30.91
2023-04-11T10:45:27.900Z,33.65
2023-04-11T10:48:05.930Z,35.87
2023-04-11T10:50:37.765Z,37.82
2023-04-11T10:53:09.433Z,37.70
2023-04-11T10:55:44.611Z,38.74
2023-04-11T10:58:22.436Z,38.77
2023-04-11T11:00:52.737Z,38.42
2023-04-11T11:03:19.682Z,37.10
2023-04-11T11:05:47.696Z,34.66
2023-04-11T11:08:14.500Z,33.59
2023-04-11T11:10:44.776Z,34.83
2023-04-11T11:13:22.053Z,36.15
2023-04-11T11:15:50.297Z,37.63
2023-04-11T11:18:18.445Z,38.62
2023-04-11T11:20:45.192Z,39.49
2023-04-11T11:23:14.710Z,40.36
2023-04-11T11:25:53.039Z,39.84
2023-04-11T11:28:19.677Z,37.75
2023-04-11T11:30:54.029Z,36.65
2023-04-11T11:33:26.900Z,37.00
2023-04-11T11:36:06.792Z,37.99
2023-04-11T11:38:33.654Z,38.93
2023-04-11T11:41:01.003Z,39.82
2023-04-11T11:43:35.178Z,37.97
2023-04-11T11:46:16.006Z,36.02
2023-04-11T11:48:57.133Z,37.39
2023-04-11T11:51:24.522Z,38.64
2023-04-11T11:54:08.763Z,39.43
2023-04-11T11:56:39.762Z,38.41
2023-04-11T11:59:07.616Z,36.28
2023-04-11T12:01:35.749Z,34.30
2023-04-11T12:04:04.580Z,33.94
2023-04-11T12:06:32.514Z,33.52
2023-04-11T12:09:09.599Z,32.91
2023-04-11T12:11:41.183Z,31.86
2023-04-11T12:14:08.795Z,31.86
2023-04-11T12:16:40.559Z,32.93
2023-04-11T12:19:08.684Z,34.92
2023-04-11T12:21:35.235Z,36.10
2023-04-11T12:24:01.855Z,35.24
2023-04-11T12:26:28.717Z,34.71
2023-04-11T12:28:55.550Z,34.89
2023-04-11T12:31:25.303Z,34.58
2023-04-11T12:33:52.280Z,35.11
2023-04-11T12:36:18.973Z,35.92
2023-04-11T12:38:45.658Z,37.21
2023-04-11T12:44:04.179Z,37.71
2023-04-11T12:44:22.842Z,37.59
2023-04-11T12:46:30.839Z,36.83
2023-04-11T12:48:58.016Z,36.23
2023-04-11T12:51:24.924Z,36.54
2023-04-11T12:53:52.839Z,37.44
2023-04-11T12:56:19.449Z,38.17
2023-04-11T12:58:46.398Z,38.34
2023-04-11T13:01:12.998Z,37.44
2023-04-11T13:03:39.711Z,37.70
2023-04-11T13:06:07.057Z,38.37
2023-04-11T13:08:33.638Z,38.99
2023-04-11T13:11:00.486Z,39.64
2023-04-11T13:13:27.125Z,40.92
2023-04-11T13:15:54.991Z,41.26
2023-04-11T13:18:21.911Z,41.19
2023-04-11T13:20:48.788Z,41.96
2023-04-11T13:23:17.204Z,41.68
2023-04-11T13:25:44.099Z,41.19
2023-04-11T13:28:10.685Z,41.44
2023-04-11T13:30:37.339Z,41.62
2023-04-11T13:33:04.186Z,41.47
2023-04-11T13:35:31.013Z,41.12
2023-04-11T13:37:57.806Z,41.26
2023-04-11T13:40:24.427Z,41.66
2023-04-11T13:42:52.202Z,42.07
2023-04-11T13:45:18.865Z,42.42
2023-04-11T13:47:45.760Z,41.74
2023-04-11T13:50:12.493Z,40.86
2023-04-11T13:52:39.738Z,41.24
2023-04-11T13:55:07.116Z,41.80
2023-04-11T13:57:33.692Z,41.63
2023-04-11T14:00:00.313Z,41.66
2023-04-11T14:02:27.066Z,41.99
2023-04-11T14:04:53.780Z,41.99
2023-04-11T14:07:20.457Z,42.13
2023-04-11T14:09:46.989Z,43.15
2023-04-11T14:12:13.613Z,43.08
2023-04-11T14:14:40.339Z,42.42
2023-04-11T14:17:07.068Z,42.45
2023-04-11T14:19:33.941Z,42.23
2023-04-11T14:22:00.713Z,42.27
2023-04-11T14:24:27.572Z,42.85
2023-04-11T14:26:54.260Z,43.23
2023-04-11T14:29:22.397Z,43.47
2023-04-11T14:31:50.213Z,43.65
2023-04-11T14:34:18.602Z,43.75
2023-04-11T14:36:45.614Z,43.39
2023-04-11T14:39:12.648Z,43.08
2023-04-11T14:41:39.513Z,43.38
2023-04-11T14:44:06.529Z,43.63
2023-04-11T14:46:34.954Z,43.47
2023-04-11T14:49:02.159Z,44.00
2023-04-11T14:51:29.849Z,44.27
2023-04-11T14:53:57.220Z,44.75
2023-04-11T14:56:24.940Z,44.69
2023-04-11T14:58:51.788Z,44.40
2023-04-11T15:01:20.128Z,44.68
2023-04-11T15:03:47.136Z,45.26
2023-04-11T15:06:14.049Z,45.72
2023-04-11T15:08:41.335Z,46.25
2023-04-11T15:11:08.343Z,46.77
2023-04-11T15:13:35.140Z,46.75
2023-04-11T15:16:05.716Z,46.91
2023-04-11T15:18:32.934Z,46.60
2023-04-11T15:21:00.658Z,46.77
2023-04-11T15:23:27.302Z,47.26
2023-04-11T15:25:59.481Z,46.93
2023-04-11T15:28:30.393Z,46.98
2023-04-11T15:30:57.411Z,46.72
2023-04-11T15:33:24.192Z,47.07
2023-04-11T15:35:53.834Z,47.33
2023-04-11T15:38:21.074Z,47.96
2023-04-11T15:40:51.893Z,47.69
2023-04-11T15:43:18.664Z,47.99
2023-04-11T15:45:45.288Z,48.46
2023-04-11T15:48:13.477Z,48.18
2023-04-11T15:50:43.964Z,48.32
2023-04-11T15:53:11.569Z,48.39
2023-04-11T15:55:40.776Z,48.69
2023-04-11T15:58:07.617Z,49.08
2023-04-11T16:00:39.326Z,49.26
2023-04-11T16:03:08.589Z,48.81
2023-04-11T16:05:38.327Z,49.26
2023-04-11T16:08:06.978Z,49.55
2023-04-11T16:10:33.918Z,48.67
2023-04-11T16:13:01.775Z,48.63
2023-04-11T16:15:28.414Z,48.55
2023-04-11T16:17:55.023Z,49.09
2023-04-11T16:20:22.911Z,49.39
2023-04-11T16:22:49.678Z,49.85
2023-04-11T16:25:19.448Z,50.05
2023-04-11T16:27:46.762Z,50.02
2023-04-11T16:30:13.937Z,50.27
2023-04-11T16:32:40.912Z,50.60
2023-04-11T16:35:08.369Z,50.97
2023-04-11T16:37:35.660Z,51.42
2023-04-11T16:40:02.722Z,51.67
2023-04-11T16:42:30.058Z,52.00
2023-04-11T16:44:56.655Z,52.26
2023-04-11T16:47:26.298Z,52.52
2023-04-11T16:49:53.606Z,53.08
2023-04-11T16:52:21.584Z,53.33
2023-04-11T16:54:48.356Z,53.62
2023-04-11T16:57:14.937Z,53.97
2023-04-11T16:59:41.912Z,54.28
2023-04-11T17:02:08.643Z,54.38
2023-04-11T17:04:35.566Z,54.76
2023-04-11T17:07:02.309Z,55.26
2023-04-11T17:09:29.569Z,55.44
2023-04-11T17:11:56.625Z,55.88
2023-04-11T17:14:24.550Z,55.99
2023-04-11T17:16:51.639Z,56.23
2023-04-11T17:19:18.287Z,56.60
2023-04-11T17:21:45.084Z,56.76
2023-04-11T17:24:11.654Z,56.54
2023-04-11T17:26:38.682Z,56.87
2023-04-11T17:29:06.525Z,57.18
2023-04-11T17:31:34.048Z,57.41
2023-04-11T17:34:00.720Z,57.90
2023-04-11T17:36:28.433Z,58.00
2023-04-11T17:38:55.121Z,57.96
2023-04-11T17:41:22.062Z,58.59
2023-04-11T17:43:48.572Z,58.46
2023-04-11T17:46:15.557Z,59.19
2023-04-11T17:48:42.431Z,59.67
2023-04-11T17:51:09.068Z,60.28
2023-04-11T17:53:36.066Z,60.02
2023-04-11T17:56:04.776Z,60.23
2023-04-11T17:58:31.886Z,60.30
2023-04-11T18:00:58.696Z,60.31
2023-04-11T18:03:26.243Z,60.90
2023-04-11T18:05:54.556Z,60.92
2023-04-11T18:08:36.188Z,61.09
2023-04-11T18:11:11.321Z,60.72
2023-04-11T18:13:37.967Z,61.04
2023-04-11T18:16:05.203Z,61.33
2023-04-11T18:18:31.952Z,61.38
2023-04-11T18:21:05.065Z,61.56
2023-04-11T18:23:33.879Z,61.72
2023-04-11T18:26:00.582Z,61.92
2023-04-11T18:28:27.243Z,61.82
2023-04-11T18:30:54.852Z,61.82
2023-04-11T18:33:21.723Z,61.98
2023-04-11T18:35:48.424Z,61.92
2023-04-11T18:38:17.337Z,61.82
2023-04-11T18:40:43.944Z,61.88
2023-04-11T18:43:10.706Z,61.76
2023-04-11T18:45:38.992Z,62.20
2023-04-11T18:48:06.461Z,63.62
2023-04-11T18:50:38.939Z,61.33
2023-04-11T18:53:11.875Z,58.47
2023-04-11T18:55:40.901Z,57.31
2023-04-11T18:58:09.519Z,58.28
2023-04-11T19:00:39.033Z,58.83
2023-04-11T19:03:07.172Z,59.35
2023-04-11T19:05:34.471Z,59.94
2023-04-11T19:08:01.626Z,60.74
2023-04-11T19:10:28.481Z,61.48
2023-04-11T19:12:55.427Z,63.46
2023-04-11T19:15:22.651Z,63.47
2023-04-11T19:17:49.623Z,61.28
2023-04-11T19:20:16.745Z,58.14
2023-04-11T19:22:43.579Z,57.51
2023-04-11T19:25:11.650Z,58.90
2023-04-11T19:27:41.306Z,59.81
2023-04-11T19:30:10.335Z,60.90
2023-04-11T19:32:43.438Z,61.24
2023-04-11T19:35:11.812Z,61.50
2023-04-11T19:37:39.748Z,64.73
2023-04-11T19:40:13.602Z,64.47
2023-04-11T19:42:42.158Z,61.80
2023-04-11T19:45:10.513Z,58.37
2023-04-11T19:47:39.164Z,57.11
2023-04-11T19:50:13.557Z,57.87
2023-04-11T19:52:41.580Z,59.65
2023-04-11T19:55:09.452Z,60.10
2023-04-11T19:57:38.753Z,60.89
2023-04-11T20:00:13.790Z,64.43
2023-04-11T20:02:44.996Z,65.43
2023-04-11T20:05:13.786Z,63.41
2023-04-11T20:07:40.524Z,60.01
2023-04-11T20:10:08.291Z,57.29
2023-04-11T20:12:35.032Z,57.91
2023-04-11T20:15:02.438Z,58.22
2023-04-11T20:17:29.859Z,60.56
2023-04-11T20:19:56.838Z,64.23
2023-04-11T20:22:25.863Z,64.04
2023-04-11T20:24:52.777Z,62.51
2023-04-11T20:27:19.663Z,60.68
2023-04-11T20:29:47.339Z,58.41
2023-04-11T20:32:14.281Z,57.34
2023-04-11T20:34:41.463Z,58.52
2023-04-11T20:37:09.104Z,59.68
2023-04-11T20:39:36.568Z,61.59
2023-04-11T20:42:03.584Z,64.59
2023-04-11T20:44:30.511Z,65.86
2023-04-11T20:46:57.182Z,64.48
2023-04-11T20:49:28.284Z,61.85
2023-04-11T20:51:55.236Z,61.20
2023-04-11T20:54:22.593Z,57.78
2023-04-11T20:56:49.420Z,56.36
2023-04-11T20:59:16.250Z,57.53
2023-04-11T21:01:44.100Z,59.46
2023-04-11T21:04:11.646Z,61.15
2023-04-11T21:06:38.605Z,66.47
2023-04-11T21:09:05.979Z,65.69
2023-04-11T21:11:32.860Z,60.76
2023-04-11T21:13:59.634Z,57.47
2023-04-11T21:16:26.620Z,57.03
2023-04-11T21:18:53.289Z,58.46
2023-04-11T21:21:20.765Z,60.01
2023-04-11T21:23:47.643Z,63.80
2023-04-11T21:26:14.445Z,65.26
2023-04-11T21:28:41.202Z,63.28
2023-04-11T21:31:07.902Z,61.66
2023-04-11T21:33:35.047Z,60.54
2023-04-11T21:36:01.873Z,58.03
2023-04-11T21:38:28.936Z,57.75
2023-04-11T21:40:57.983Z,59.02
2023-04-11T21:43:25.150Z,60.64
2023-04-11T21:45:52.767Z,64.24
2023-04-11T21:48:19.847Z,65.77
2023-04-11T21:50:46.677Z,64.09
2023-04-11T21:53:14.183Z,62.67
2023-04-11T21:55:46.297Z,61.41
2023-04-11T21:58:26.313Z,60.31
2023-04-11T22:00:56.069Z,58.25
2023-04-11T22:03:23.654Z,58.40
2023-04-11T22:05:52.395Z,59.64
2023-04-11T22:08:22.250Z,63.54
2023-04-11T22:10:50.732Z,65.34
2023-04-11T22:13:19.925Z,63.97
2023-04-11T22:15:48.913Z,61.73
2023-04-11T22:18:15.868Z,60.45
2023-04-11T22:20:44.069Z,58.23
2023-04-11T22:23:13.525Z,57.87
2023-04-11T22:25:44.210Z,59.27
2023-04-11T22:28:15.645Z,63.34
2023-04-11T22:30:44.078Z,65.47
2023-04-11T22:33:13.735Z,64.77
2023-04-11T22:35:40.833Z,63.15
2023-04-11T22:38:07.513Z,61.20
2023-04-11T22:40:34.934Z,58.82
2023-04-11T22:43:02.843Z,58.45
2023-04-11T22:45:29.360Z,59.57
2023-04-11T22:47:59.975Z,62.73
2023-04-11T22:50:26.739Z,65.34
2023-04-11T22:52:54.805Z,62.43
2023-04-11T22:55:24.802Z,61.07
2023-04-11T22:57:51.543Z,58.11
2023-04-11T23:00:18.951Z,58.88
2023-04-11T23:02:45.625Z,61.41
2023-04-11T23:05:12.182Z,65.58
2023-04-11T23:07:38.824Z,67.59
2023-04-11T23:10:10.526Z,66.95
2023-04-11T23:12:37.130Z,65.48
2023-04-11T23:15:04.284Z,64.43
2023-04-11T23:17:30.826Z,63.19
2023-04-11T23:19:59.687Z,62.36
2023-04-11T23:22:26.599Z,61.98
2023-04-11T23:24:53.862Z,61.77
2023-04-11T23:27:20.980Z,61.48
2023-04-11T23:30:51.900Z,61.28
2023-04-11T23:33:25.771Z,61.09
2023-04-11T23:35:53.200Z,60.20
2023-04-11T23:38:19.823Z,58.45
2023-04-11T23:40:46.344Z,58.13
2023-04-11T23:43:12.880Z,60.75
2023-04-11T23:45:39.434Z,64.60
2023-04-11T23:48:06.920Z,64.93
2023-04-11T23:50:33.528Z,63.02
2023-04-11T23:53:00.517Z,60.97
2023-04-11T23:55:27.116Z,59.49
2023-04-11T23:57:54.148Z,58.64
